createdAt,value
2023-02-01T06:51:39.863Z,7.50
2023-02-01T06:54:16.823Z,13.07
2023-02-01T06:56:53.308Z,7.93
2023-02-01T06:59:30.314Z,8.97
2023-02-01T07:02:06.837Z,8.40
2023-02-01T07:04:43.709Z,12.53
2023-02-01T07:07:23.998Z,18.20
2023-02-01T07:10:00.886Z,15.47
2023-02-01T07:12:38.035Z,10.57
2023-02-01T07:15:16.294Z,13.23
2023-02-01T07:17:53.673Z,14.07
2023-02-01T07:20:30.835Z,11.60
2023-02-01T07:23:09.913Z,13.73
2023-02-01T07:25:46.791Z,12.87
2023-02-01T07:28:23.257Z,17.57
2023-02-01T07:31:01.156Z,10.17
2023-02-01T07:33:38.065Z,14.43
2023-02-01T07:36:17.804Z,11.83
2023-02-01T07:38:57.234Z,13.97
2023-02-01T07:41:34.107Z,13.90
2023-02-01T07:44:10.632Z,14.80
2023-02-01T07:46:47.590Z,12.67
2023-02-01T07:49:24.123Z,17.87
2023-02-01T07:52:01.333Z,16.90
2023-02-01T07:54:41.024Z,17.77
2023-02-01T07:57:18.002Z,15.63
2023-02-01T08:00:06.690Z,14.57
2023-02-01T08:02:49.676Z,15.00
2023-02-01T08:05:26.685Z,16.43
2023-02-01T08:08:03.934Z,17.93
2023-02-01T08:10:43.069Z,19.13
2023-02-01T08:13:20.217Z,15.57
2023-02-01T08:15:56.742Z,10.87
2023-02-01T08:18:33.758Z,13.87
2023-02-01T08:21:11.423Z,14.53
2023-02-01T08:23:48.766Z,11.77
2023-02-01T08:26:29.671Z,15.17
2023-02-01T08:29:08.864Z,13.93
2023-02-01T08:31:45.485Z,17.17
2023-02-01T08:34:22.597Z,11.77
2023-02-01T08:37:01.794Z,12.23
2023-02-01T08:39:38.853Z,15.17
2023-02-01T08:42:30.239Z,19.37
2023-02-01T08:45:09.194Z,15.60
2023-02-01T08:47:45.733Z,19.20
2023-02-01T08:50:23.764Z,14.63
2023-02-01T08:53:00.519Z,16.97
2023-02-01T08:55:37.459Z,17.97
2023-02-01T08:58:18.371Z,17.40
2023-02-01T09:00:55.567Z,21.43
2023-02-01T09:03:32.314Z,12.73
2023-02-01T09:06:10.841Z,12.57
2023-02-01T09:08:47.732Z,15.33
2023-02-01T09:11:24.809Z,17.37
2023-02-01T09:14:04.069Z,13.90
2023-02-01T09:16:41.000Z,11.80
2023-02-01T09:19:26.603Z,8.70
2023-02-01T09:22:07.106Z,12.90
2023-02-01T09:24:43.692Z,10.37
2023-02-01T09:27:20.601Z,10.97
2023-02-01T09:29:59.782Z,16.67
2023-02-01T09:32:36.856Z,9.63
2023-02-01T09:35:13.858Z,13.17
2023-02-01T09:37:51.184Z,10.80
2023-02-01T09:40:28.007Z,11.63
2023-02-01T09:43:15.747Z,8.23
2023-02-01T09:46:03.123Z,13.60
2023-02-01T09:48:42.229Z,17.73
2023-02-01T09:51:22.943Z,12.77
2023-02-01T09:54:04.742Z,14.10
2023-02-01T09:56:44.972Z,8.30
2023-02-01T09:59:33.360Z,11.50
2023-02-01T10:02:17.429Z,8.60
2023-02-01T10:04:54.891Z,9.90
2023-02-01T10:07:40.083Z,10.07
2023-02-01T10:10:22.596Z,10.20
2023-02-01T10:13:22.667Z,11.27
2023-02-01T10:16:10.764Z,11.57
2023-02-01T10:19:07.850Z,6.17
2023-02-01T10:21:51.672Z,9.10
2023-02-01T10:24:41.005Z,12.35
2023-02-01T10:27:25.167Z,11.03
2023-02-01T10:32:40.470Z,7.13
2023-02-01T10:35:22.512Z,5.60
2023-02-01T10:38:02.906Z,6.40
2023-02-01T10:40:40.000Z,6.27
2023-02-01T10:43:17.889Z,7.40
2023-02-01T10:45:54.944Z,10.40
2023-02-01T10:48:32.023Z,8.60
2023-02-01T10:51:15.350Z,11.87
2023-02-01T10:56:30.401Z,10.80
2023-02-01T10:59:08.791Z,10.33
2023-02-01T11:01:46.557Z,9.87
2023-02-01T11:04:24.659Z,8.93
2023-02-01T11:07:16.919Z,10.20
2023-02-01T11:09:56.291Z,8.43
2023-02-01T11:12:35.962Z,8.20
2023-02-01T11:15:20.429Z,9.90
2023-02-01T11:17:57.922Z,12.33
2023-02-01T11:20:42.639Z,12.90
2023-02-01T11:23:23.234Z,10.53
2023-02-01T11:26:01.837Z,5.27
2023-02-01T11:28:39.876Z,8.57
2023-02-01T11:31:17.983Z,6.57
2023-02-01T11:33:58.609Z,7.40
2023-02-01T11:36:37.102Z,6.13
2023-02-01T11:39:24.794Z,4.40
2023-02-01T11:42:06.839Z,3.97
2023-02-01T11:44:45.089Z,2.97
2023-02-01T11:47:32.962Z,1.50
2023-02-01T11:50:17.280Z,2.73
2023-02-01T11:53:07.441Z,1.97
2023-02-01T11:55:53.889Z,2.27
2023-02-01T11:58:58.074Z,3.33
2023-02-01T12:01:48.476Z,2.40
2023-02-01T12:04:53.119Z,4.00
2023-02-01T12:07:39.918Z,6.47
2023-02-01T12:10:29.059Z,4.80
2023-02-01T12:13:24.953Z,4.97
2023-02-01T12:16:09.261Z,6.23
2023-02-01T12:19:16.209Z,5.97
2023-02-01T12:22:29.722Z,8.17
2023-02-01T12:25:21.783Z,7.33
2023-02-01T12:28:20.603Z,4.83
2023-02-01T12:31:11.470Z,3.63
2023-02-01T12:34:11.943Z,4.13
2023-02-01T12:36:52.817Z,5.07
2023-02-01T12:39:36.550Z,3.73
2023-02-01T12:42:18.698Z,3.90
2023-02-01T12:45:00.817Z,4.23
2023-02-01T12:47:40.004Z,4.37
2023-02-01T12:50:23.096Z,2.50
2023-02-01T12:53:13.667Z,3.78
2023-02-01T12:55:53.861Z,5.57
2023-02-01T12:58:44.350Z,3.87
2023-02-01T13:01:26.728Z,3.37
2023-02-01T13:04:10.973Z,7.17
2023-02-01T13:06:51.152Z,4.03
2023-02-01T13:09:30.796Z,2.73
2023-02-01T13:12:14.012Z,7.67
2023-02-01T13:14:54.452Z,4.32
2023-02-01T13:17:36.123Z,5.20
2023-02-01T13:20:22.609Z,6.33
2023-02-01T13:23:04.059Z,5.67
2023-02-01T13:25:44.661Z,8.63
2023-02-01T13:28:24.700Z,4.97
2023-02-01T13:31:25.369Z,6.87
2023-02-01T13:34:36.412Z,7.97
2023-02-01T13:37:31.275Z,7.73
2023-02-01T13:40:25.352Z,9.70
2023-02-01T13:43:03.292Z,10.23
2023-02-01T13:45:42.015Z,11.30
2023-02-01T13:48:26.780Z,9.17
2023-02-01T13:51:06.625Z,9.57
2023-02-01T13:53:49.318Z,11.10
2023-02-01T13:56:28.435Z,8.75
2023-02-01T13:59:39.742Z,13.13
2023-02-01T14:02:46.062Z,10.20
2023-02-01T14:05:52.315Z,9.50
2023-02-01T14:08:48.529Z,12.60
2023-02-01T14:11:46.889Z,9.97
2023-02-01T14:14:47.822Z,6.83
2023-02-01T14:17:42.254Z,9.47
2023-02-01T14:20:50.393Z,9.43
2023-02-01T14:23:29.179Z,9.10
2023-02-01T14:26:12.757Z,10.40
2023-02-01T14:28:54.421Z,9.68
2023-02-01T14:31:59.773Z,4.83
2023-02-01T14:34:44.554Z,10.40
2023-02-01T14:37:30.545Z,6.37
2023-02-01T14:40:08.839Z,5.77
2023-02-01T14:42:57.987Z,9.87
2023-02-01T14:45:54.945Z,5.97
2023-02-01T14:48:47.936Z,6.73
2023-02-01T14:51:32.269Z,5.33
2023-02-01T14:54:09.495Z,4.97
2023-02-01T14:56:46.147Z,6.60
2023-02-01T14:59:35.518Z,5.17
2023-02-01T15:02:25.056Z,3.13
2023-02-01T15:05:02.458Z,3.00
2023-02-01T15:07:39.629Z,4.63
2023-02-01T15:10:17.384Z,5.57
2023-02-01T15:13:13.403Z,4.53
2023-02-01T15:16:16.710Z,6.90
2023-02-01T15:18:53.915Z,4.90
2023-02-01T15:21:32.661Z,6.70
2023-02-01T15:24:16.338Z,5.97
2023-02-01T15:29:33.688Z,5.07
2023-02-01T15:32:33.641Z,6.13
2023-02-01T15:35:45.574Z,4.73
2023-02-01T15:38:41.433Z,4.50
2023-02-01T15:41:20.572Z,3.90
2023-02-01T15:44:12.252Z,4.70
2023-02-01T15:46:52.697Z,6.97
2023-02-01T15:49:34.717Z,6.90
2023-02-01T15:52:23.420Z,4.93
2023-02-01T15:55:03.315Z,3.90
2023-02-01T15:57:44.983Z,6.23
2023-02-01T16:00:29.011Z,7.17
2023-02-01T16:05:47.861Z,4.60
2023-02-01T16:08:27.330Z,8.43
2023-02-01T16:11:26.259Z,7.50
2023-02-01T16:14:02.843Z,8.50
2023-02-01T16:16:39.769Z,15.17
2023-02-01T16:19:16.503Z,8.07
2023-02-01T16:21:56.472Z,10.10
2023-02-01T16:24:34.468Z,12.10
2023-02-01T16:27:11.575Z,10.10
2023-02-01T16:29:48.650Z,10.23
2023-02-01T16:32:28.180Z,11.63
2023-02-01T16:35:09.917Z,10.27
2023-02-01T16:37:55.629Z,10.63
2023-02-01T16:40:35.472Z,11.70
2023-02-01T16:43:21.810Z,14.83
2023-02-01T16:46:04.232Z,11.20
2023-02-01T16:48:51.291Z,13.30
2023-02-01T16:51:33.822Z,13.23
2023-02-01T16:54:15.282Z,8.27
2023-02-01T16:56:55.801Z,13.50
2023-02-01T16:59:35.230Z,17.13
2023-02-01T17:02:17.615Z,10.63
2023-02-01T17:05:01.958Z,10.60
2023-02-01T17:07:42.796Z,11.40
2023-02-01T17:10:34.099Z,11.83
2023-02-01T17:13:16.479Z,14.30
2023-02-01T17:16:01.528Z,12.50
2023-02-01T17:18:40.253Z,16.13
2023-02-01T17:21:30.000Z,14.33
2023-02-01T17:24:19.924Z,13.73
2023-02-01T17:27:06.770Z,14.87
2023-02-01T17:29:44.360Z,12.73
2023-02-01T17:32:26.279Z,8.23
2023-02-01T17:35:07.509Z,17.83
2023-02-01T17:37:47.005Z,10.60
2023-02-01T17:40:29.711Z,13.77
2023-02-01T17:43:17.581Z,14.20
2023-02-01T17:45:58.917Z,14.07
2023-02-01T17:48:38.401Z,12.63
2023-02-01T17:51:23.486Z,14.80
2023-02-01T17:54:03.052Z,14.13
2023-02-01T17:56:40.929Z,14.30
2023-02-01T17:59:24.522Z,12.93
2023-02-01T18:02:07.448Z,11.63
2023-02-01T18:07:26.277Z,10.37
2023-02-01T18:10:07.415Z,12.43
2023-02-01T18:12:45.885Z,12.23
2023-02-01T18:15:31.008Z,19.97
2023-02-01T18:18:09.641Z,16.35
2023-02-01T18:20:55.557Z,16.33
2023-02-01T18:23:35.262Z,15.10
2023-02-01T18:26:20.245Z,18.97
2023-02-01T18:29:02.746Z,21.67
2023-02-01T18:31:54.419Z,14.35
2023-02-01T18:34:36.456Z,19.02
2023-02-01T18:37:21.078Z,16.63
2023-02-01T18:40:01.668Z,18.07
2023-02-01T18:42:42.287Z,15.40
2023-02-01T18:45:34.266Z,18.53
2023-02-01T18:50:59.111Z,15.83
2023-02-01T18:53:39.245Z,12.13
2023-02-01T18:56:19.113Z,13.63
2023-02-01T18:58:58.795Z,21.67
2023-02-01T19:01:38.209Z,16.23
2023-02-01T19:04:25.985Z,11.10
2023-02-01T19:07:05.872Z,13.40
2023-02-01T19:09:44.606Z,14.17
2023-02-01T19:12:23.635Z,11.67
2023-02-01T19:15:03.455Z,15.40
2023-02-01T19:17:43.576Z,9.77
2023-02-01T19:20:37.564Z,13.30
2023-02-01T19:23:16.438Z,10.33
2023-02-01T19:25:56.584Z,10.20
2023-02-01T19:28:39.388Z,10.63
2023-02-01T19:31:19.083Z,10.17
2023-02-01T19:34:01.724Z,12.35
2023-02-01T19:36:44.531Z,13.43
2023-02-01T19:39:25.887Z,11.00
2023-02-01T19:42:06.632Z,9.93
2023-02-01T19:44:48.458Z,9.27
2023-02-01T19:47:32.174Z,10.93
